sensor_id;sensor_type;location;lat;lon;timestamp;P1;durP1;ratioP1;P2;durP2;ratioP2
11346;SDS011;5728;42.722;23.258;2023-10-19T00:00:48;24.30;;;13.73;;
11346;SDS011;5728;42.722;23.258;2023-10-19T00:03:15;17.40;;;13.20;;
11346;SDS011;5728;42.722;23.258;2023-10-19T00:05:43;18.93;;;13.70;;
11346;SDS011;5728;42.722;23.258;2023-10-19T00:08:10;17.13;;;12.57;;
11346;SDS011;5728;42.722;23.258;2023-10-19T00:10:42;21.57;;;13.67;;
11346;SDS011;5728;42.722;23.258;2023-10-19T00:13:11;20.73;;;13.53;;
11346;SDS011;5728;42.722;23.258;2023-10-19T00:15:40;19.30;;;13.20;;
11346;SDS011;5728;42.722;23.258;2023-10-19T00:18:13;22.37;;;14.77;;
11346;SDS011;5728;42.722;23.258;2023-10-19T00:20:48;17.97;;;13.87;;
11346;SDS011;5728;42.722;23.258;2023-10-19T00:23:17;19.60;;;13.73;;
11346;SDS011;5728;42.722;23.258;2023-10-19T00:25:50;18.70;;;14.73;;
11346;SDS011;5728;42.722;23.258;2023-10-19T00:28:18;19.13;;;13.57;;
11346;SDS011;5728;42.722;23.258;2023-10-19T00:30:47;20.50;;;15.20;;
11346;SDS011;5728;42.722;23.258;2023-10-19T00:33:14;18.07;;;12.93;;
11346;SDS011;5728;42.722;23.258;2023-10-19T00:35:45;18.30;;;12.77;;
11346;SDS011;5728;42.722;23.258;2023-10-19T00:38:25;20.37;;;13.93;;
11346;SDS011;5728;42.722;23.258;2023-10-19T00:41:04;18.33;;;13.07;;
11346;SDS011;5728;42.722;23.258;2023-10-19T00:43:38;19.77;;;13.33;;
11346;SDS011;5728;42.722;23.258;2023-10-19T00:46:09;18.80;;;12.93;;
11346;SDS011;5728;42.722;23.258;2023-10-19T00:48:44;18.40;;;12.40;;
11346;SDS011;5728;42.722;23.258;2023-10-19T00:51:14;20.13;;;13.17;;
11346;SDS011;5728;42.722;23.258;2023-10-19T00:53:53;17.87;;;13.00;;
11346;SDS011;5728;42.722;23.258;2023-10-19T00:56:21;18.50;;;12.37;;
11346;SDS011;5728;42.722;23.258;2023-10-19T00:58:53;20.10;;;12.30;;
11346;SDS011;5728;42.722;23.258;2023-10-19T01:01:26;17.73;;;12.83;;
11346;SDS011;5728;42.722;23.258;2023-10-19T01:03:55;19.07;;;12.63;;
11346;SDS011;5728;42.722;23.258;2023-10-19T01:06:23;21.63;;;12.43;;
11346;SDS011;5728;42.722;23.258;2023-10-19T01:08:50;18.70;;;13.57;;
11346;SDS011;5728;42.722;23.258;2023-10-19T01:11:18;18.37;;;13.20;;
11346;SDS011;5728;42.722;23.258;2023-10-19T01:13:47;19.67;;;12.73;;
11346;SDS011;5728;42.722;23.258;2023-10-19T01:16:18;15.97;;;12.03;;
11346;SDS011;5728;42.722;23.258;2023-10-19T01:18:51;23.30;;;13.53;;
11346;SDS011;5728;42.722;23.258;2023-10-19T01:21:21;17.87;;;12.67;;
11346;SDS011;5728;42.722;23.258;2023-10-19T01:23:54;18.20;;;12.67;;
11346;SDS011;5728;42.722;23.258;2023-10-19T01:26:21;25.40;;;13.83;;
11346;SDS011;5728;42.722;23.258;2023-10-19T01:28:51;20.30;;;12.70;;
11346;SDS011;5728;42.722;23.258;2023-10-19T01:31:24;23.10;;;13.70;;
11346;SDS011;5728;42.722;23.258;2023-10-19T01:33:56;17.77;;;13.10;;
11346;SDS011;5728;42.722;23.258;2023-10-19T01:36:24;16.33;;;12.73;;
11346;SDS011;5728;42.722;23.258;2023-10-19T01:38:50;17.33;;;13.60;;
11346;SDS011;5728;42.722;23.258;2023-10-19T01:41:20;19.80;;;13.40;;
11346;SDS011;5728;42.722;23.258;2023-10-19T01:43:47;21.67;;;13.27;;
11346;SDS011;5728;42.722;23.258;2023-10-19T01:46:18;20.97;;;13.90;;
11346;SDS011;5728;42.722;23.258;2023-10-19T01:48:50;21.73;;;13.57;;
11346;SDS011;5728;42.722;23.258;2023-10-19T01:51:20;18.43;;;13.90;;
11346;SDS011;5728;42.722;23.258;2023-10-19T01:53:48;18.90;;;13.33;;
11346;SDS011;5728;42.722;23.258;2023-10-19T01:56:16;17.47;;;13.50;;
11346;SDS011;5728;42.722;23.258;2023-10-19T01:58:44;21.00;;;13.37;;
11346;SDS011;5728;42.722;23.258;2023-10-19T02:01:13;17.73;;;13.07;;
11346;SDS011;5728;42.722;23.258;2023-10-19T02:03:45;18.53;;;14.17;;
11346;SDS011;5728;42.722;23.258;2023-10-19T02:06:18;16.30;;;14.00;;
11346;SDS011;5728;42.722;23.258;2023-10-19T02:08:48;17.03;;;12.87;;
11346;SDS011;5728;42.722;23.258;2023-10-19T02:11:19;21.03;;;13.53;;
11346;SDS011;5728;42.722;23.258;2023-10-19T02:13:48;16.30;;;12.73;;
11346;SDS011;5728;42.722;23.258;2023-10-19T02:16:16;20.07;;;13.67;;
11346;SDS011;5728;42.722;23.258;2023-10-19T02:18:45;19.00;;;14.27;;
11346;SDS011;5728;42.722;23.258;2023-10-19T02:21:12;21.20;;;13.53;;
11346;SDS011;5728;42.722;23.258;2023-10-19T02:23:39;21.43;;;14.47;;
11346;SDS011;5728;42.722;23.258;2023-10-19T02:26:07;19.73;;;13.70;;
11346;SDS011;5728;42.722;23.258;2023-10-19T02:28:38;19.40;;;13.97;;
11346;SDS011;5728;42.722;23.258;2023-10-19T02:31:05;16.60;;;12.90;;
11346;SDS011;5728;42.722;23.258;2023-10-19T02:33:44;22.47;;;15.33;;
11346;SDS011;5728;42.722;23.258;2023-10-19T02:36:17;20.20;;;14.73;;
11346;SDS011;5728;42.722;23.258;2023-10-19T02:38:44;21.53;;;14.67;;
11346;SDS011;5728;42.722;23.258;2023-10-19T02:41:13;22.03;;;15.20;;
11346;SDS011;5728;42.722;23.258;2023-10-19T02:43:42;21.03;;;15.33;;
11346;SDS011;5728;42.722;23.258;2023-10-19T02:46:13;24.63;;;15.93;;
11346;SDS011;5728;42.722;23.258;2023-10-19T02:48:42;20.03;;;13.83;;
11346;SDS011;5728;42.722;23.258;2023-10-19T02:51:10;20.87;;;15.00;;
11346;SDS011;5728;42.722;23.258;2023-10-19T02:53:37;24.27;;;15.53;;
11346;SDS011;5728;42.722;23.258;2023-10-19T02:56:11;23.43;;;15.13;;
11346;SDS011;5728;42.722;23.258;2023-10-19T02:58:40;21.33;;;14.57;;
11346;SDS011;5728;42.722;23.258;2023-10-19T03:01:18;19.37;;;14.33;;
11346;SDS011;5728;42.722;23.258;2023-10-19T03:03:47;21.80;;;14.60;;
11346;SDS011;5728;42.722;23.258;2023-10-19T03:06:19;19.50;;;14.30;;
11346;SDS011;5728;42.722;23.258;2023-10-19T03:08:45;21.10;;;15.03;;
11346;SDS011;5728;42.722;23.258;2023-10-19T03:11:13;21.00;;;14.70;;
11346;SDS011;5728;42.722;23.258;2023-10-19T03:13:39;20.33;;;14.30;;
11346;SDS011;5728;42.722;23.258;2023-10-19T03:16:08;19.77;;;14.43;;
11346;SDS011;5728;42.722;23.258;2023-10-19T03:18:35;20.50;;;15.17;;
11346;SDS011;5728;42.722;23.258;2023-10-19T03:21:04;19.00;;;14.83;;
11346;SDS011;5728;42.722;23.258;2023-10-19T03:23:31;19.13;;;13.27;;
11346;SDS011;5728;42.722;23.258;2023-10-19T03:25:59;23.40;;;16.03;;
11346;SDS011;5728;42.722;23.258;2023-10-19T03:28:44;18.17;;;13.40;;
11346;SDS011;5728;42.722;23.258;2023-10-19T03:31:11;21.10;;;14.60;;
11346;SDS011;5728;42.722;23.258;2023-10-19T03:33:44;20.80;;;13.53;;
11346;SDS011;5728;42.722;23.258;2023-10-19T03:36:14;19.57;;;14.30;;
11346;SDS011;5728;42.722;23.258;2023-10-19T03:38:41;24.33;;;15.20;;
11346;SDS011;5728;42.722;23.258;2023-10-19T03:41:09;21.60;;;16.50;;
11346;SDS011;5728;42.722;23.258;2023-10-19T03:43:36;30.90;;;17.00;;
11346;SDS011;5728;42.722;23.258;2023-10-19T03:46:05;26.17;;;17.80;;
11346;SDS011;5728;42.722;23.258;2023-10-19T03:48:45;29.77;;;15.97;;
11346;SDS011;5728;42.722;23.258;2023-10-19T03:51:12;23.23;;;15.10;;
11346;SDS011;5728;42.722;23.258;2023-10-19T03:53:40;24.90;;;16.20;;
11346;SDS011;5728;42.722;23.258;2023-10-19T03:56:11;19.50;;;14.23;;
11346;SDS011;5728;42.722;23.258;2023-10-19T03:58:38;18.40;;;14.53;;
11346;SDS011;5728;42.722;23.258;2023-10-19T04:01:08;20.47;;;14.13;;
11346;SDS011;5728;42.722;23.258;2023-10-19T04:03:36;20.70;;;14.47;;
11346;SDS011;5728;42.722;23.258;2023-10-19T04:06:04;26.93;;;15.33;;
11346;SDS011;5728;42.722;23.258;2023-10-19T04:08:32;20.93;;;14.67;;
11346;SDS011;5728;42.722;23.258;2023-10-19T04:11:02;22.27;;;14.30;;
11346;SDS011;5728;42.722;23.258;2023-10-19T04:13:37;26.57;;;15.17;;
11346;SDS011;5728;42.722;23.258;2023-10-19T04:16:04;25.70;;;14.90;;
11346;SDS011;5728;42.722;23.258;2023-10-19T04:18:33;24.03;;;14.23;;
11346;SDS011;5728;42.722;23.258;2023-10-19T04:21:04;26.23;;;15.57;;
11346;SDS011;5728;42.722;23.258;2023-10-19T04:23:31;26.50;;;16.10;;
11346;SDS011;5728;42.722;23.258;2023-10-19T04:26:00;24.60;;;14.90;;
11346;SDS011;5728;42.722;23.258;2023-10-19T04:28:30;36.57;;;17.43;;
11346;SDS011;5728;42.722;23.258;2023-10-19T04:31:03;23.87;;;16.73;;
11346;SDS011;5728;42.722;23.258;2023-10-19T04:33:31;22.03;;;17.03;;
11346;SDS011;5728;42.722;23.258;2023-10-19T04:36:00;28.00;;;16.27;;
11346;SDS011;5728;42.722;23.258;2023-10-19T04:38:28;25.40;;;16.40;;
11346;SDS011;5728;42.722;23.258;2023-10-19T04:41:05;27.27;;;16.73;;
11346;SDS011;5728;42.722;23.258;2023-10-19T04:43:33;26.73;;;18.77;;
11346;SDS011;5728;42.722;23.258;2023-10-19T04:46:04;27.63;;;17.80;;
11346;SDS011;5728;42.722;23.258;2023-10-19T04:48:34;22.13;;;15.47;;
11346;SDS011;5728;42.722;23.258;2023-10-19T04:51:01;24.70;;;16.97;;
11346;SDS011;5728;42.722;23.258;2023-10-19T04:53:31;27.67;;;16.73;;
11346;SDS011;5728;42.722;23.258;2023-10-19T04:55:58;31.53;;;17.77;;
11346;SDS011;5728;42.722;23.258;2023-10-19T04:58:26;27.70;;;18.13;;
11346;SDS011;5728;42.722;23.258;2023-10-19T05:00:54;20.70;;;15.23;;
11346;SDS011;5728;42.722;23.258;2023-10-19T05:03:23;30.47;;;17.13;;
11346;SDS011;5728;42.722;23.258;2023-10-19T05:05:50;32.57;;;18.27;;
11346;SDS011;5728;42.722;23.258;2023-10-19T05:08:17;23.60;;;16.63;;
11346;SDS011;5728;42.722;23.258;2023-10-19T05:10:46;23.57;;;17.70;;
11346;SDS011;5728;42.722;23.258;2023-10-19T05:13:13;30.87;;;18.10;;
11346;SDS011;5728;42.722;23.258;2023-10-19T05:15:40;35.90;;;20.70;;
11346;SDS011;5728;42.722;23.258;2023-10-19T05:18:08;36.17;;;20.13;;
11346;SDS011;5728;42.722;23.258;2023-10-19T05:20:35;41.30;;;20.27;;
11346;SDS011;5728;42.722;23.258;2023-10-19T05:23:05;36.97;;;20.73;;
11346;SDS011;5728;42.722;23.258;2023-10-19T05:25:33;38.37;;;20.13;;
11346;SDS011;5728;42.722;23.258;2023-10-19T05:28:03;31.87;;;19.87;;
11346;SDS011;5728;42.722;23.258;2023-10-19T05:30:30;36.87;;;21.10;;
11346;SDS011;5728;42.722;23.258;2023-10-19T05:32:58;41.33;;;19.50;;
11346;SDS011;5728;42.722;23.258;2023-10-19T05:35:26;38.13;;;20.80;;
11346;SDS011;5728;42.722;23.258;2023-10-19T05:37:55;28.43;;;18.50;;
11346;SDS011;5728;42.722;23.258;2023-10-19T05:40:23;34.13;;;20.07;;
11346;SDS011;5728;42.722;23.258;2023-10-19T05:42:54;38.87;;;17.80;;
11346;SDS011;5728;42.722;23.258;2023-10-19T05:45:24;34.27;;;18.63;;
11346;SDS011;5728;42.722;23.258;2023-10-19T05:47:52;44.23;;;21.30;;
11346;SDS011;5728;42.722;23.258;2023-10-19T05:50:19;35.07;;;19.50;;
11346;SDS011;5728;42.722;23.258;2023-10-19T05:52:45;37.90;;;21.13;;
11346;SDS011;5728;42.722;23.258;2023-10-19T05:55:14;35.17;;;21.00;;
11346;SDS011;5728;42.722;23.258;2023-10-19T05:57:41;32.63;;;21.50;;
11346;SDS011;5728;42.722;23.258;2023-10-19T06:00:08;35.47;;;21.43;;
11346;SDS011;5728;42.722;23.258;2023-10-19T06:02:42;35.30;;;20.93;;
11346;SDS011;5728;42.722;23.258;2023-10-19T06:05:10;37.53;;;21.20;;
11346;SDS011;5728;42.722;23.258;2023-10-19T06:07:40;40.50;;;21.20;;
11346;SDS011;5728;42.722;23.258;2023-10-19T06:10:08;38.10;;;20.93;;
11346;SDS011;5728;42.722;23.258;2023-10-19T06:12:41;40.43;;;21.50;;
11346;SDS011;5728;42.722;23.258;2023-10-19T06:15:09;35.53;;;20.70;;
11346;SDS011;5728;42.722;23.258;2023-10-19T06:17:37;37.23;;;21.50;;
11346;SDS011;5728;42.722;23.258;2023-10-19T06:20:06;33.60;;;20.23;;
11346;SDS011;5728;42.722;23.258;2023-10-19T06:22:45;42.83;;;22.20;;
11346;SDS011;5728;42.722;23.258;2023-10-19T06:25:15;32.93;;;21.17;;
11346;SDS011;5728;42.722;23.258;2023-10-19T06:27:43;42.07;;;21.40;;
11346;SDS011;5728;42.722;23.258;2023-10-19T06:30:11;33.17;;;20.60;;
11346;SDS011;5728;42.722;23.258;2023-10-19T06:32:42;33.13;;;19.77;;
11346;SDS011;5728;42.722;23.258;2023-10-19T06:35:13;33.53;;;19.80;;
11346;SDS011;5728;42.722;23.258;2023-10-19T06:37:39;36.03;;;19.67;;
11346;SDS011;5728;42.722;23.258;2023-10-19T06:40:07;34.43;;;21.00;;
11346;SDS011;5728;42.722;23.258;2023-10-19T06:42:36;39.53;;;23.00;;
11346;SDS011;5728;42.722;23.258;2023-10-19T06:45:03;43.57;;;23.50;;
11346;SDS011;5728;42.722;23.258;2023-10-19T06:47:32;41.60;;;23.73;;
11346;SDS011;5728;42.722;23.258;2023-10-19T06:50:02;38.23;;;23.83;;
11346;SDS011;5728;42.722;23.258;2023-10-19T06:52:34;41.13;;;23.93;;
11346;SDS011;5728;42.722;23.258;2023-10-19T06:55:02;44.83;;;23.07;;
11346;SDS011;5728;42.722;23.258;2023-10-19T06:57:30;38.00;;;24.43;;
11346;SDS011;5728;42.722;23.258;2023-10-19T06:59:57;45.30;;;23.67;;
11346;SDS011;5728;42.722;23.258;2023-10-19T07:02:24;40.57;;;24.30;;
11346;SDS011;5728;42.722;23.258;2023-10-19T07:04:51;43.23;;;24.27;;
11346;SDS011;5728;42.722;23.258;2023-10-19T07:07:18;41.60;;;23.93;;
11346;SDS011;5728;42.722;23.258;2023-10-19T07:09:47;47.03;;;25.30;;
11346;SDS011;5728;42.722;23.258;2023-10-19T07:12:14;41.53;;;26.33;;
11346;SDS011;5728;42.722;23.258;2023-10-19T07:14:44;38.27;;;23.80;;
11346;SDS011;5728;42.722;23.258;2023-10-19T07:17:12;41.10;;;25.20;;
11346;SDS011;5728;42.722;23.258;2023-10-19T07:19:41;37.63;;;24.13;;
11346;SDS011;5728;42.722;23.258;2023-10-19T07:22:08;42.57;;;24.00;;
11346;SDS011;5728;42.722;23.258;2023-10-19T07:24:36;41.30;;;23.57;;
11346;SDS011;5728;42.722;23.258;2023-10-19T07:27:05;39.50;;;21.90;;
11346;SDS011;5728;42.722;23.258;2023-10-19T07:29:33;34.13;;;20.90;;
11346;SDS011;5728;42.722;23.258;2023-10-19T07:32:01;38.77;;;21.63;;
11346;SDS011;5728;42.722;23.258;2023-10-19T07:34:31;32.20;;;21.33;;
11346;SDS011;5728;42.722;23.258;2023-10-19T07:36:58;27.47;;;20.13;;
11346;SDS011;5728;42.722;23.258;2023-10-19T07:39:26;34.73;;;21.10;;
11346;SDS011;5728;42.722;23.258;2023-10-19T07:41:55;36.30;;;20.67;;
11346;SDS011;5728;42.722;23.258;2023-10-19T07:44:23;30.73;;;18.27;;
11346;SDS011;5728;42.722;23.258;2023-10-19T07:46:51;32.83;;;18.97;;
11346;SDS011;5728;42.722;23.258;2023-10-19T07:49:18;28.70;;;19.53;;
11346;SDS011;5728;42.722;23.258;2023-10-19T07:51:47;37.83;;;21.37;;
11346;SDS011;5728;42.722;23.258;2023-10-19T07:54:15;43.77;;;21.80;;
11346;SDS011;5728;42.722;23.258;2023-10-19T07:56:42;33.33;;;21.23;;
11346;SDS011;5728;42.722;23.258;2023-10-19T07:59:09;38.07;;;21.83;;
11346;SDS011;5728;42.722;23.258;2023-10-19T08:01:39;35.93;;;20.30;;
11346;SDS011;5728;42.722;23.258;2023-10-19T08:04:05;31.73;;;20.70;;
11346;SDS011;5728;42.722;23.258;2023-10-19T08:06:32;31.83;;;21.07;;
11346;SDS011;5728;42.722;23.258;2023-10-19T08:09:00;33.60;;;21.27;;
11346;SDS011;5728;42.722;23.258;2023-10-19T08:11:26;30.03;;;18.63;;
11346;SDS011;5728;42.722;23.258;2023-10-19T08:13:53;26.60;;;18.40;;
11346;SDS011;5728;42.722;23.258;2023-10-19T08:16:21;30.17;;;19.87;;
11346;SDS011;5728;42.722;23.258;2023-10-19T08:18:49;34.00;;;19.80;;
11346;SDS011;5728;42.722;23.258;2023-10-19T08:21:18;30.33;;;20.03;;
11346;SDS011;5728;42.722;23.258;2023-10-19T08:23:44;28.33;;;18.60;;
11346;SDS011;5728;42.722;23.258;2023-10-19T08:26:13;28.37;;;18.27;;
11346;SDS011;5728;42.722;23.258;2023-10-19T08:28:41;27.63;;;16.80;;
11346;SDS011;5728;42.722;23.258;2023-10-19T08:31:08;28.05;;;16.50;;
11346;SDS011;5728;42.722;23.258;2023-10-19T08:33:36;29.83;;;16.58;;
11346;SDS011;5728;42.722;23.258;2023-10-19T08:36:05;28.85;;;15.55;;
11346;SDS011;5728;42.722;23.258;2023-10-19T08:38:32;22.98;;;15.18;;
11346;SDS011;5728;42.722;23.258;2023-10-19T08:41:00;21.42;;;15.57;;
11346;SDS011;5728;42.722;23.258;2023-10-19T08:43:28;18.42;;;14.43;;
11346;SDS011;5728;42.722;23.258;2023-10-19T08:45:58;17.20;;;12.93;;
11346;SDS011;5728;42.722;23.258;2023-10-19T08:48:26;20.02;;;14.35;;
11346;SDS011;5728;42.722;23.258;2023-10-19T08:50:54;16.63;;;13.00;;
11346;SDS011;5728;42.722;23.258;2023-10-19T08:53:23;19.50;;;12.82;;
11346;SDS011;5728;42.722;23.258;2023-10-19T08:55:50;17.17;;;11.00;;
11346;SDS011;5728;42.722;23.258;2023-10-19T08:58:19;16.45;;;12.40;;
11346;SDS011;5728;42.722;23.258;2023-10-19T09:00:47;17.10;;;11.40;;
11346;SDS011;5728;42.722;23.258;2023-10-19T09:03:18;12.38;;;10.52;;
11346;SDS011;5728;42.722;23.258;2023-10-19T09:05:47;14.38;;;11.20;;
11346;SDS011;5728;42.722;23.258;2023-10-19T09:08:14;14.25;;;10.35;;
11346;SDS011;5728;42.722;23.258;2023-10-19T09:10:44;18.25;;;11.02;;
11346;SDS011;5728;42.722;23.258;2023-10-19T09:13:12;16.13;;;10.65;;
11346;SDS011;5728;42.722;23.258;2023-10-19T09:15:41;14.57;;;9.73;;
11346;SDS011;5728;42.722;23.258;2023-10-19T09:18:14;20.55;;;10.07;;
11346;SDS011;5728;42.722;23.258;2023-10-19T09:20:43;13.60;;;8.00;;
11346;SDS011;5728;42.722;23.258;2023-10-19T09:23:19;12.27;;;8.90;;
11346;SDS011;5728;42.722;23.258;2023-10-19T09:25:49;11.23;;;7.28;;
11346;SDS011;5728;42.722;23.258;2023-10-19T09:28:17;10.60;;;8.00;;
11346;SDS011;5728;42.722;23.258;2023-10-19T09:30:44;8.77;;;7.20;;
11346;SDS011;5728;42.722;23.258;2023-10-19T09:33:14;13.88;;;8.65;;
11346;SDS011;5728;42.722;23.258;2023-10-19T09:35:43;10.50;;;8.35;;
11346;SDS011;5728;42.722;23.258;2023-10-19T09:38:13;13.23;;;8.52;;
11346;SDS011;5728;42.722;23.258;2023-10-19T09:40:42;11.80;;;8.52;;
11346;SDS011;5728;42.722;23.258;2023-10-19T09:43:12;10.68;;;8.38;;
11346;SDS011;5728;42.722;23.258;2023-10-19T09:45:42;15.75;;;9.38;;
11346;SDS011;5728;42.722;23.258;2023-10-19T09:48:16;13.23;;;9.13;;
11346;SDS011;5728;42.722;23.258;2023-10-19T09:50:46;10.82;;;8.57;;
11346;SDS011;5728;42.722;23.258;2023-10-19T09:53:20;13.15;;;8.77;;
11346;SDS011;5728;42.722;23.258;2023-10-19T09:55:48;10.05;;;8.30;;
11346;SDS011;5728;42.722;23.258;2023-10-19T09:58:21;16.40;;;8.18;;
11346;SDS011;5728;42.722;23.258;2023-10-19T10:00:51;11.02;;;8.25;;
11346;SDS011;5728;42.722;23.258;2023-10-19T10:06:11;10.75;;;9.20;;
11346;SDS011;5728;42.722;23.258;2023-10-19T10:08:40;10.05;;;8.10;;
11346;SDS011;5728;42.722;23.258;2023-10-19T10:11:15;11.38;;;8.65;;
11346;SDS011;5728;42.722;23.258;2023-10-19T10:13:44;12.80;;;7.93;;
11346;SDS011;5728;42.722;23.258;2023-10-19T10:16:15;10.77;;;7.85;;
11346;SDS011;5728;42.722;23.258;2023-10-19T10:18:44;8.70;;;7.25;;
11346;SDS011;5728;42.722;23.258;2023-10-19T10:21:14;11.65;;;8.15;;
11346;SDS011;5728;42.722;23.258;2023-10-19T10:23:42;10.77;;;8.57;;
11346;SDS011;5728;42.722;23.258;2023-10-19T10:26:11;10.27;;;8.32;;
11346;SDS011;5728;42.722;23.258;2023-10-19T10:28:39;14.30;;;8.57;;
11346;SDS011;5728;42.722;23.258;2023-10-19T10:31:11;12.00;;;7.85;;
11346;SDS011;5728;42.722;23.258;2023-10-19T10:33:41;14.45;;;8.07;;
11346;SDS011;5728;42.722;23.258;2023-10-19T10:36:10;10.10;;;7.43;;
11346;SDS011;5728;42.722;23.258;2023-10-19T10:38:37;12.73;;;8.20;;
11346;SDS011;5728;42.722;23.258;2023-10-19T10:41:05;9.07;;;8.10;;
11346;SDS011;5728;42.722;23.258;2023-10-19T10:43:47;10.30;;;7.68;;
11346;SDS011;5728;42.722;23.258;2023-10-19T10:46:17;9.38;;;7.65;;
11346;SDS011;5728;42.722;23.258;2023-10-19T10:48:44;10.05;;;7.70;;
11346;SDS011;5728;42.722;23.258;2023-10-19T10:51:17;11.05;;;6.97;;
11346;SDS011;5728;42.722;23.258;2023-10-19T10:53:48;8.63;;;7.32;;
11346;SDS011;5728;42.722;23.258;2023-10-19T10:56:17;8.52;;;7.57;;
11346;SDS011;5728;42.722;23.258;2023-10-19T10:58:44;10.40;;;8.07;;
11346;SDS011;5728;42.722;23.258;2023-10-19T11:01:11;9.50;;;6.68;;
11346;SDS011;5728;42.722;23.258;2023-10-19T11:03:40;7.68;;;6.13;;
11346;SDS011;5728;42.722;23.258;2023-10-19T11:06:08;7.38;;;6.00;;
11346;SDS011;5728;42.722;23.258;2023-10-19T11:08:36;8.27;;;6.85;;
11346;SDS011;5728;42.722;23.258;2023-10-19T11:11:05;9.77;;;6.72;;
11346;SDS011;5728;42.722;23.258;2023-10-19T11:13:36;10.40;;;6.55;;
11346;SDS011;5728;42.722;23.258;2023-10-19T11:16:03;11.68;;;6.57;;
11346;SDS011;5728;42.722;23.258;2023-10-19T11:18:32;8.25;;;6.55;;
11346;SDS011;5728;42.722;23.258;2023-10-19T11:21:05;6.32;;;5.50;;
11346;SDS011;5728;42.722;23.258;2023-10-19T11:23:38;9.40;;;5.88;;
11346;SDS011;5728;42.722;23.258;2023-10-19T11:26:09;7.40;;;5.13;;
11346;SDS011;5728;42.722;23.258;2023-10-19T11:28:37;6.30;;;5.50;;
11346;SDS011;5728;42.722;23.258;2023-10-19T11:31:13;9.95;;;5.95;;
11346;SDS011;5728;42.722;23.258;2023-10-19T11:33:41;9.48;;;5.10;;
11346;SDS011;5728;42.722;23.258;2023-10-19T11:36:12;11.60;;;5.80;;
11346;SDS011;5728;42.722;23.258;2023-10-19T11:38:40;7.55;;;5.47;;
11346;SDS011;5728;42.722;23.258;2023-10-19T11:41:08;6.55;;;5.18;;
11346;SDS011;5728;42.722;23.258;2023-10-19T11:43:35;5.13;;;4.55;;
11346;SDS011;5728;42.722;23.258;2023-10-19T11:46:02;8.02;;;5.30;;
11346;SDS011;5728;42.722;23.258;2023-10-19T11:48:31;6.88;;;5.57;;
11346;SDS011;5728;42.722;23.258;2023-10-19T11:50:59;6.65;;;5.20;;
11346;SDS011;5728;42.722;23.258;2023-10-19T11:53:30;6.65;;;5.00;;
11346;SDS011;5728;42.722;23.258;2023-10-19T11:56:00;6.80;;;4.72;;
11346;SDS011;5728;42.722;23.258;2023-10-19T11:58:29;9.48;;;5.60;;
11346;SDS011;5728;42.722;23.258;2023-10-19T12:00:58;5.88;;;5.28;;
11346;SDS011;5728;42.722;23.258;2023-10-19T12:03:25;10.52;;;5.97;;
11346;SDS011;5728;42.722;23.258;2023-10-19T12:05:52;5.93;;;5.30;;
11346;SDS011;5728;42.722;23.258;2023-10-19T12:08:20;10.20;;;6.13;;
11346;SDS011;5728;42.722;23.258;2023-10-19T12:10:49;7.25;;;5.18;;
11346;SDS011;5728;42.722;23.258;2023-10-19T12:13:16;5.80;;;5.15;;
11346;SDS011;5728;42.722;23.258;2023-10-19T12:15:43;8.65;;;5.25;;
11346;SDS011;5728;42.722;23.258;2023-10-19T12:18:17;6.20;;;5.40;;
11346;SDS011;5728;42.722;23.258;2023-10-19T12:20:45;9.75;;;5.40;;
11346;SDS011;5728;42.722;23.258;2023-10-19T12:23:12;9.30;;;5.30;;
11346;SDS011;5728;42.722;23.258;2023-10-19T12:25:39;8.18;;;5.47;;
11346;SDS011;5728;42.722;23.258;2023-10-19T12:28:09;7.05;;;5.10;;
11346;SDS011;5728;42.722;23.258;2023-10-19T12:30:40;6.38;;;5.05;;
11346;SDS011;5728;42.722;23.258;2023-10-19T12:33:07;7.65;;;4.47;;
11346;SDS011;5728;42.722;23.258;2023-10-19T12:35:37;6.25;;;4.57;;
11346;SDS011;5728;42.722;23.258;2023-10-19T12:38:14;6.25;;;4.80;;
11346;SDS011;5728;42.722;23.258;2023-10-19T12:40:43;6.20;;;4.60;;
11346;SDS011;5728;42.722;23.258;2023-10-19T12:43:13;9.35;;;4.95;;
11346;SDS011;5728;42.722;23.258;2023-10-19T12:45:40;5.78;;;4.78;;
11346;SDS011;5728;42.722;23.258;2023-10-19T12:48:09;7.57;;;4.55;;
11346;SDS011;5728;42.722;23.258;2023-10-19T12:50:37;5.25;;;4.10;;
11346;SDS011;5728;42.722;23.258;2023-10-19T12:53:06;6.07;;;4.47;;
11346;SDS011;5728;42.722;23.258;2023-10-19T12:55:34;5.78;;;4.55;;
11346;SDS011;5728;42.722;23.258;2023-10-19T12:58:03;5.00;;;4.07;;
11346;SDS011;5728;42.722;23.258;2023-10-19T13:00:35;5.78;;;4.65;;
11346;SDS011;5728;42.722;23.258;2023-10-19T13:03:07;13.18;;;5.65;;
11346;SDS011;5728;42.722;23.258;2023-10-19T13:05:38;5.00;;;4.18;;
11346;SDS011;5728;42.722;23.258;2023-10-19T13:08:06;8.43;;;4.50;;
11346;SDS011;5728;42.722;23.258;2023-10-19T13:10:34;6.70;;;4.45;;
11346;SDS011;5728;42.722;23.258;2023-10-19T13:13:05;6.78;;;4.53;;
11346;SDS011;5728;42.722;23.258;2023-10-19T13:15:38;5.05;;;4.38;;
11346;SDS011;5728;42.722;23.258;2023-10-19T13:18:07;4.83;;;3.43;;
11346;SDS011;5728;42.722;23.258;2023-10-19T13:20:36;4.88;;;4.22;;
11346;SDS011;5728;42.722;23.258;2023-10-19T13:23:04;9.07;;;3.63;;
11346;SDS011;5728;42.722;23.258;2023-10-19T13:25:36;7.28;;;4.35;;
11346;SDS011;5728;42.722;23.258;2023-10-19T13:28:11;6.18;;;3.72;;
11346;SDS011;5728;42.722;23.258;2023-10-19T13:30:42;6.28;;;4.13;;
11346;SDS011;5728;42.722;23.258;2023-10-19T13:33:14;11.88;;;4.85;;
11346;SDS011;5728;42.722;23.258;2023-10-19T13:35:42;5.38;;;4.20;;
11346;SDS011;5728;42.722;23.258;2023-10-19T13:38:10;6.32;;;4.78;;
11346;SDS011;5728;42.722;23.258;2023-10-19T13:40:39;4.40;;;4.00;;
11346;SDS011;5728;42.722;23.258;2023-10-19T13:43:07;11.20;;;5.38;;
11346;SDS011;5728;42.722;23.258;2023-10-19T13:45:39;11.65;;;4.82;;
11346;SDS011;5728;42.722;23.258;2023-10-19T13:48:09;12.30;;;5.45;;
11346;SDS011;5728;42.722;23.258;2023-10-19T13:50:40;8.25;;;5.18;;
11346;SDS011;5728;42.722;23.258;2023-10-19T13:53:09;5.93;;;5.05;;
11346;SDS011;5728;42.722;23.258;2023-10-19T13:55:36;6.82;;;5.45;;
11346;SDS011;5728;42.722;23.258;2023-10-19T13:58:03;7.57;;;5.05;;
11346;SDS011;5728;42.722;23.258;2023-10-19T14:00:31;7.85;;;4.97;;
11346;SDS011;5728;42.722;23.258;2023-10-19T14:03:07;11.13;;;4.50;;
11346;SDS011;5728;42.722;23.258;2023-10-19T14:05:36;8.07;;;5.30;;
11346;SDS011;5728;42.722;23.258;2023-10-19T14:08:05;7.93;;;5.00;;
11346;SDS011;5728;42.722;23.258;2023-10-19T14:10:32;11.85;;;4.65;;
11346;SDS011;5728;42.722;23.258;2023-10-19T14:13:01;5.60;;;4.78;;
11346;SDS011;5728;42.722;23.258;2023-10-19T14:15:30;5.53;;;4.22;;
11346;SDS011;5728;42.722;23.258;2023-10-19T14:17:59;5.60;;;4.22;;
11346;SDS011;5728;42.722;23.258;2023-10-19T14:20:29;4.70;;;3.47;;
11346;SDS011;5728;42.722;23.258;2023-10-19T14:22:59;5.88;;;4.07;;
11346;SDS011;5728;42.722;23.258;2023-10-19T14:25:27;7.53;;;4.13;;
11346;SDS011;5728;42.722;23.258;2023-10-19T14:27:55;6.43;;;4.15;;
11346;SDS011;5728;42.722;23.258;2023-10-19T14:30:25;4.90;;;3.67;;
11346;SDS011;5728;42.722;23.258;2023-10-19T14:32:53;9.05;;;4.40;;
11346;SDS011;5728;42.722;23.258;2023-10-19T14:35:21;7.13;;;3.60;;
11346;SDS011;5728;42.722;23.258;2023-10-19T14:37:52;7.45;;;3.60;;
11346;SDS011;5728;42.722;23.258;2023-10-19T14:40:21;7.15;;;3.75;;
11346;SDS011;5728;42.722;23.258;2023-10-19T14:42:50;6.85;;;4.20;;